Winston, MT (59647)

1:51 AM MST on December 06, 2016 (GMT -0700)
Spruce Grove Subdivision | | Change Station

Elev 4196 ft 46.54 °N, 111.74 °W | Updated 16 seconds ago

Overcast
Overcast
6.1 °F
Feels Like -3 °F
N
4.7
Wind Variable Wind from WNW

Today
High -- | Low -- °F
--% Chance of Precip.
Yesterday
High -- | Low -- °F
Precip. -- in
Pressure 30.29 in
Visibility 10.0 miles
Clouds Few 2300 ft
Overcast 6000 ft
Windchill -3 °F
Dew Point 4 °F
Humidity 90%
Rainfall 0.00 in
Snow Depth Not available.
7:56 AM 4:39 PM
Waxing Crescent, 39% visible
METAR KHLN 060753Z AUTO 28004KT 10SM FEW023 OVC060 M13/M17 A3005 RMK AO2 SLP255 T11281167
Pressure 30.29 in
Visibility 10.0 miles
Clouds Few 2300 ft
Overcast 6000 ft
Windchill -3 °F
Dew Point 4 °F
Humidity 90%
Rainfall 0.00 in
Snow Depth Not available.
7:56 AM 4:39 PM
Waxing Crescent, 39% visible
METAR KHLN 060753Z AUTO 28004KT 10SM FEW023 OVC060 M13/M17 A3005 RMK AO2 SLP255 T11281167

10-Day Weather Forecast

Almanac

Astronomy

Dec. 06, 2016 Rise Set
Actual Time
Civil Twilight
Nautical Twilight
Astronomical Twilight
Moon
Length of Visible Light
Length of Day
Tomorrow will be .
, % of the Moon is Illuminated

Today's Extremes

State Highs State Lows

Community

WunderPhotos

Upload Photos

1,955,930 photos uploaded!

WunderBlog® & News

Nearby

Air Quality

  Air Quality AQ Index Pollutant
Not available.

Snow Depth

Station Depth Elevation

Earthquake Activity

City Distance Mag. Time & Date
Minimum magnitude displayed is 2.5.

Coastal Water Temperatures

Place Temperature

Stations

Nearby Weather Stations

Station Location Temp. Windchill Dew Point Humidity Wind Precip. Elev Updated Type
                   

Watches & Warnings

There are currently no watches in effect.